createdAt,value
2023-05-08T00:01:43.779Z,3.33
2023-05-08T00:04:16.398Z,3.80
2023-05-08T00:06:48.833Z,3.05
2023-05-08T00:09:21.370Z,3.63
2023-05-08T00:11:55.102Z,3.13
2023-05-08T00:14:27.442Z,3.47
2023-05-08T00:17:02.757Z,3.57
2023-05-08T00:19:35.261Z,3.30
2023-05-08T00:22:07.568Z,3.57
2023-05-08T00:24:40.036Z,3.90
2023-05-08T00:27:12.680Z,3.80
2023-05-08T00:29:45.058Z,3.80
2023-05-08T00:32:17.607Z,3.73
2023-05-08T00:34:50.135Z,3.45
2023-05-08T00:37:22.505Z,3.92
2023-05-08T00:39:54.898Z,3.80
2023-05-08T00:42:27.370Z,3.27
2023-05-08T00:44:59.709Z,3.60
2023-05-08T00:47:32.974Z,3.73
2023-05-08T00:52:38.306Z,4.20
2023-05-08T00:55:10.760Z,3.88
2023-05-08T00:57:44.874Z,3.97
2023-05-08T01:00:18.651Z,4.10
2023-05-08T01:02:51.218Z,3.78
2023-05-08T01:05:23.894Z,3.45
2023-05-08T01:07:56.634Z,3.65
2023-05-08T01:10:42.993Z,4.38
2023-05-08T01:13:41.664Z,4.10
2023-05-08T01:16:20.057Z,3.90
2023-05-08T01:19:08.190Z,4.00
2023-05-08T01:21:50.496Z,4.07
2023-05-08T01:24:44.266Z,4.20
2023-05-08T01:27:19.790Z,4.18
2023-05-08T01:30:17.348Z,3.63
2023-05-08T01:33:08.646Z,4.07
2023-05-08T01:35:53.318Z,3.97
2023-05-08T01:39:07.240Z,4.30
2023-05-08T01:41:43.567Z,4.18
2023-05-08T01:44:20.014Z,4.15
2023-05-08T01:46:53.724Z,4.20
2023-05-08T01:49:49.228Z,4.35
2023-05-08T01:52:31.783Z,4.13
2023-05-08T01:55:08.925Z,4.20
2023-05-08T01:57:47.926Z,4.60
2023-05-08T02:00:23.092Z,4.60
2023-05-08T02:02:58.234Z,4.68
2023-05-08T02:05:34.084Z,4.45
2023-05-08T02:08:11.509Z,4.50
2023-05-08T02:10:46.065Z,4.40
2023-05-08T02:13:23.639Z,4.50
2023-05-08T02:15:59.790Z,4.28
2023-05-08T02:18:32.420Z,4.63
2023-05-08T02:21:09.454Z,4.30
2023-05-08T02:23:45.870Z,4.85
2023-05-08T02:26:19.523Z,4.30
2023-05-08T02:28:54.405Z,4.50
2023-05-08T02:31:28.010Z,4.60
2023-05-08T02:34:02.679Z,4.65
2023-05-08T02:36:37.616Z,4.63
2023-05-08T02:39:15.214Z,4.82
2023-05-08T02:41:50.573Z,4.60
2023-05-08T02:44:22.981Z,4.45
2023-05-08T02:47:16.646Z,4.68
2023-05-08T02:50:00.315Z,4.80
2023-05-08T02:52:44.117Z,4.50
2023-05-08T02:55:55.182Z,4.80
2023-05-08T02:58:38.580Z,4.60
2023-05-08T03:01:22.182Z,4.50
2023-05-08T03:04:04.508Z,4.60
2023-05-08T03:06:44.722Z,4.60
2023-05-08T03:09:21.084Z,4.22
2023-05-08T03:12:00.973Z,4.43
2023-05-08T03:14:40.539Z,4.43
2023-05-08T03:17:16.559Z,4.38
2023-05-08T03:19:52.505Z,4.53
2023-05-08T03:22:27.560Z,4.50
2023-05-08T03:25:05.071Z,4.88
2023-05-08T03:27:40.551Z,4.15
2023-05-08T03:30:14.572Z,4.28
2023-05-08T03:32:52.704Z,4.63
2023-05-08T03:35:27.208Z,4.65
2023-05-08T03:38:00.156Z,4.18
2023-05-08T03:40:38.821Z,4.55
2023-05-08T03:43:12.302Z,4.30
2023-05-08T03:45:46.118Z,4.38
2023-05-08T03:48:22.083Z,4.20
2023-05-08T03:50:56.013Z,4.18
2023-05-08T03:53:30.586Z,3.97
2023-05-08T03:56:03.769Z,4.30
2023-05-08T03:58:46.733Z,4.47
2023-05-08T04:01:28.693Z,3.50
2023-05-08T04:04:07.933Z,3.83
2023-05-08T04:06:50.424Z,4.20
2023-05-08T04:09:36.169Z,3.83
2023-05-08T04:12:22.076Z,3.97
2023-05-08T04:15:08.340Z,3.75
2023-05-08T04:17:45.855Z,4.30
2023-05-08T04:20:22.287Z,4.18
2023-05-08T04:22:57.863Z,3.95
2023-05-08T04:25:35.458Z,3.88
2023-05-08T04:28:08.638Z,4.28
2023-05-08T04:30:42.759Z,3.72
2023-05-08T04:33:18.312Z,3.42
2023-05-08T04:35:51.500Z,3.83
2023-05-08T04:38:24.513Z,4.10
2023-05-08T04:40:56.851Z,3.92
2023-05-08T04:43:29.324Z,3.70
2023-05-08T04:46:01.890Z,3.72
2023-05-08T04:48:34.624Z,3.85
2023-05-08T04:51:07.421Z,3.65
2023-05-08T04:53:40.475Z,3.63
2023-05-08T04:56:12.875Z,3.95
2023-05-08T04:58:45.458Z,3.63
2023-05-08T05:01:18.031Z,3.67
2023-05-08T05:03:52.474Z,3.50
2023-05-08T05:06:24.942Z,3.55
2023-05-08T05:08:57.410Z,3.47
2023-05-08T05:11:30.111Z,3.53
2023-05-08T05:14:02.534Z,3.67
2023-05-08T05:16:35.236Z,3.65
2023-05-08T05:19:07.883Z,3.65
2023-05-08T05:21:40.649Z,3.38
2023-05-08T05:24:13.508Z,3.47
2023-05-08T05:26:46.020Z,3.47
2023-05-08T05:29:18.519Z,2.95
2023-05-08T05:31:51.118Z,3.38
2023-05-08T05:34:23.796Z,3.13
2023-05-08T05:36:56.112Z,3.25
2023-05-08T05:39:28.432Z,2.70
2023-05-08T05:42:01.094Z,3.17
2023-05-08T05:44:33.758Z,3.08
2023-05-08T05:47:06.398Z,3.07
2023-05-08T05:49:42.981Z,3.50
2023-05-08T05:52:16.215Z,3.05
2023-05-08T05:54:48.920Z,2.95
2023-05-08T05:57:21.591Z,3.27
2023-05-08T05:59:54.865Z,2.65
2023-05-08T06:02:28.091Z,2.80
2023-05-08T06:05:00.721Z,2.50
2023-05-08T06:07:34.717Z,3.13
2023-05-08T06:10:09.367Z,2.80
2023-05-08T06:12:42.157Z,2.70
2023-05-08T06:15:16.387Z,2.80
2023-05-08T06:17:52.862Z,2.67
2023-05-08T06:20:26.387Z,2.38
2023-05-08T06:22:59.016Z,2.78
2023-05-08T06:25:33.058Z,2.70
2023-05-08T06:28:08.165Z,2.65
2023-05-08T06:30:40.726Z,2.70
2023-05-08T06:33:14.725Z,2.50
2023-05-08T06:35:48.044Z,2.60
2023-05-08T06:38:20.392Z,2.67
2023-05-08T06:40:54.007Z,2.90
2023-05-08T06:43:26.560Z,2.47
2023-05-08T06:45:59.020Z,2.75
2023-05-08T06:48:31.436Z,2.88
2023-05-08T06:51:04.582Z,2.50
2023-05-08T06:53:36.906Z,2.80
2023-05-08T06:56:09.342Z,2.37
2023-05-08T06:58:43.501Z,2.42
2023-05-08T07:01:17.173Z,2.55
2023-05-08T07:03:49.547Z,2.20
2023-05-08T07:06:23.258Z,2.53
2023-05-08T07:08:56.610Z,2.67
2023-05-08T07:11:29.015Z,2.40
2023-05-08T07:14:01.327Z,1.92
2023-05-08T07:16:33.813Z,2.40
2023-05-08T07:19:06.186Z,2.20
2023-05-08T07:21:38.870Z,2.25
2023-05-08T07:24:11.219Z,2.45
2023-05-08T07:26:45.232Z,2.10
2023-05-08T07:29:17.532Z,2.28
2023-05-08T07:31:52.017Z,2.10
2023-05-08T07:34:24.454Z,2.35
2023-05-08T07:36:56.777Z,2.00
2023-05-08T07:39:29.148Z,2.20
2023-05-08T07:42:01.671Z,2.33
2023-05-08T07:44:40.588Z,1.80
2023-05-08T07:47:19.567Z,2.22
2023-05-08T07:49:53.172Z,2.28
2023-05-08T07:52:26.935Z,2.20
2023-05-08T07:54:59.401Z,2.25
2023-05-08T07:57:38.740Z,2.03
2023-05-08T08:00:14.811Z,2.35
2023-05-08T08:02:47.826Z,2.30
2023-05-08T08:05:21.376Z,2.20
2023-05-08T08:07:53.769Z,2.30
2023-05-08T08:10:27.286Z,2.20
2023-05-08T08:13:02.355Z,1.92
2023-05-08T08:15:34.884Z,2.17
2023-05-08T08:18:08.157Z,2.17
2023-05-08T08:20:41.611Z,2.25
2023-05-08T08:23:13.961Z,2.05
2023-05-08T08:25:46.342Z,2.03
2023-05-08T08:28:18.777Z,2.40
2023-05-08T08:30:51.577Z,2.27
2023-05-08T08:33:24.176Z,2.28
2023-05-08T08:35:56.885Z,2.28
2023-05-08T08:38:29.285Z,2.15
2023-05-08T08:41:01.902Z,2.22
2023-05-08T08:43:35.176Z,2.45
2023-05-08T08:46:15.823Z,2.13
2023-05-08T08:48:50.335Z,2.17
2023-05-08T08:51:43.270Z,2.33
2023-05-08T08:54:20.606Z,2.37
2023-05-08T08:56:55.745Z,2.40
2023-05-08T08:59:29.890Z,2.65
2023-05-08T09:02:13.398Z,2.35
2023-05-08T09:04:49.854Z,2.50
2023-05-08T09:07:24.493Z,2.40
2023-05-08T09:09:57.524Z,2.28
2023-05-08T09:15:03.007Z,2.22
2023-05-08T09:17:45.140Z,2.53
2023-05-08T09:25:41.413Z,2.22
2023-05-08T09:28:22.415Z,2.45
2023-05-08T09:30:58.737Z,2.40
2023-05-08T09:33:31.182Z,2.40
2023-05-08T09:36:05.192Z,2.20
2023-05-08T09:38:41.214Z,2.20
2023-05-08T09:41:16.130Z,2.58
2023-05-08T09:44:10.334Z,2.45
2023-05-08T09:46:43.443Z,2.22
2023-05-08T09:49:19.251Z,2.70
2023-05-08T09:51:54.940Z,2.60
2023-05-08T09:54:30.473Z,2.08
2023-05-08T09:57:15.658Z,2.08
2023-05-08T09:59:48.468Z,2.00
2023-05-08T10:02:22.318Z,2.63
2023-05-08T10:04:54.729Z,2.40
2023-05-08T10:07:34.112Z,2.20
2023-05-08T10:10:09.824Z,2.17
2023-05-08T10:12:46.494Z,2.53
2023-05-08T10:15:33.034Z,2.10
2023-05-08T10:18:08.038Z,2.30
2023-05-08T10:20:42.513Z,2.30
2023-05-08T10:23:17.860Z,2.70
2023-05-08T10:25:56.722Z,2.33
2023-05-08T10:28:37.251Z,2.10
2023-05-08T10:31:14.541Z,2.35
2023-05-08T10:33:52.654Z,2.20
2023-05-08T10:36:29.063Z,2.35
2023-05-08T10:39:05.792Z,2.58
2023-05-08T10:41:41.095Z,2.20
2023-05-08T10:44:13.927Z,2.33
2023-05-08T10:46:58.712Z,2.20
2023-05-08T10:49:48.656Z,2.05
2023-05-08T10:52:39.410Z,1.85
2023-05-08T10:55:18.150Z,2.15
2023-05-08T10:58:29.403Z,2.00
2023-05-08T11:01:08.489Z,1.80
2023-05-08T11:03:51.031Z,1.80
2023-05-08T11:06:44.335Z,1.90
2023-05-08T11:09:31.922Z,1.90
2023-05-08T11:12:08.906Z,1.95
2023-05-08T11:14:54.112Z,1.90
2023-05-08T11:17:28.896Z,1.65
2023-05-08T11:20:07.686Z,1.98
2023-05-08T11:22:47.955Z,1.80
2023-05-08T11:25:44.949Z,2.10
2023-05-08T11:28:19.958Z,1.58
2023-05-08T11:31:00.477Z,2.00
2023-05-08T11:33:34.803Z,2.00
2023-05-08T11:36:15.222Z,2.00
2023-05-08T11:39:15.614Z,1.90
2023-05-08T11:41:48.037Z,1.77
2023-05-08T11:44:24.936Z,1.67
2023-05-08T11:46:58.339Z,1.92
2023-05-08T11:49:30.832Z,1.80
2023-05-08T11:52:06.068Z,1.80
2023-05-08T11:54:38.718Z,1.70
2023-05-08T11:57:11.021Z,2.00
2023-05-08T11:59:45.008Z,1.85
2023-05-08T12:02:17.600Z,1.88
2023-05-08T12:04:49.948Z,1.58
2023-05-08T12:07:22.425Z,1.57
2023-05-08T12:09:54.817Z,2.00
2023-05-08T12:12:37.582Z,1.60
2023-05-08T12:15:15.409Z,1.83
2023-05-08T12:17:47.767Z,1.70
2023-05-08T12:20:20.465Z,1.90
2023-05-08T12:22:53.728Z,1.90
2023-05-08T12:25:27.537Z,1.60
2023-05-08T12:28:00.430Z,1.65
2023-05-08T12:30:33.303Z,1.80
2023-05-08T12:33:06.545Z,1.58
2023-05-08T12:38:12.190Z,1.67
2023-05-08T12:40:49.264Z,1.55
2023-05-08T12:43:22.222Z,1.60
2023-05-08T12:45:54.518Z,1.70
2023-05-08T12:48:28.277Z,1.70
2023-05-08T12:51:05.084Z,1.60
2023-05-08T12:53:38.217Z,1.40
2023-05-08T12:58:43.059Z,1.38
2023-05-08T13:01:16.607Z,1.30
2023-05-08T13:04:01.685Z,1.33
2023-05-08T13:06:35.988Z,1.42
2023-05-08T13:09:08.879Z,1.27
2023-05-08T13:11:41.146Z,1.38
2023-05-08T13:14:13.485Z,1.43
2023-05-08T13:16:47.900Z,1.47
2023-05-08T13:19:20.263Z,1.48
2023-05-08T13:21:53.033Z,1.50
2023-05-08T13:24:25.925Z,1.23
2023-05-08T13:26:58.296Z,1.23
2023-05-08T13:29:30.795Z,1.43
2023-05-08T13:32:03.133Z,1.40
2023-05-08T13:34:44.279Z,1.20
2023-05-08T13:37:21.983Z,1.20
2023-05-08T13:39:54.384Z,1.23
2023-05-08T13:42:29.313Z,1.20
2023-05-08T13:45:01.903Z,1.38
2023-05-08T13:47:35.088Z,1.20
2023-05-08T13:52:40.846Z,1.10
2023-05-08T13:55:14.211Z,1.20
2023-05-08T13:57:46.826Z,1.13
2023-05-08T14:00:19.792Z,1.20
2023-05-08T14:02:53.236Z,1.30
2023-05-08T14:05:25.960Z,1.00
2023-05-08T14:08:00.372Z,1.20
2023-05-08T14:10:32.852Z,1.25
2023-05-08T14:13:05.258Z,1.30
2023-05-08T14:15:38.077Z,1.10
2023-05-08T14:18:11.886Z,1.30
2023-05-08T14:20:48.998Z,1.00
2023-05-08T14:23:24.099Z,1.20
2023-05-08T14:25:56.723Z,1.20
2023-05-08T14:28:29.353Z,1.00
2023-05-08T14:31:01.703Z,1.20
2023-05-08T14:33:35.349Z,1.05
2023-05-08T14:36:08.224Z,1.10
2023-05-08T14:38:40.746Z,1.23
2023-05-08T14:41:14.313Z,1.33
2023-05-08T14:43:47.273Z,1.10
2023-05-08T14:46:19.712Z,1.10
2023-05-08T14:48:52.132Z,1.15
2023-05-08T14:51:24.600Z,1.10
2023-05-08T14:53:57.246Z,1.10
2023-05-08T14:56:34.621Z,0.95
2023-05-08T14:59:13.254Z,1.05
2023-05-08T15:01:45.928Z,1.17
2023-05-08T15:04:18.410Z,1.00
2023-05-08T15:06:50.909Z,0.95
2023-05-08T15:09:24.613Z,1.35
2023-05-08T15:11:57.401Z,0.80
2023-05-08T15:14:29.853Z,0.82
2023-05-08T15:17:02.103Z,1.10
2023-05-08T15:19:34.415Z,0.98
2023-05-08T15:22:07.302Z,1.10
2023-05-08T15:24:42.382Z,0.85
2023-05-08T15:27:14.806Z,1.00
2023-05-08T15:29:48.632Z,1.00
2023-05-08T15:32:21.410Z,1.00
2023-05-08T15:34:53.820Z,1.10
2023-05-08T15:37:26.188Z,0.90
2023-05-08T15:40:01.503Z,0.90
2023-05-08T15:42:36.127Z,1.00
2023-05-08T15:45:09.251Z,1.02
2023-05-08T15:47:41.626Z,0.95
2023-05-08T15:50:14.833Z,0.87
2023-05-08T15:55:21.446Z,1.00
2023-05-08T15:57:54.952Z,1.10
2023-05-08T16:00:33.357Z,1.00
2023-05-08T16:03:13.630Z,1.00
2023-05-08T16:05:47.019Z,1.08
2023-05-08T16:10:55.954Z,0.90
2023-05-08T16:13:30.152Z,0.90
2023-05-08T16:16:06.617Z,0.88
2023-05-08T16:18:39.345Z,0.80
2023-05-08T16:21:13.278Z,0.85
2023-05-08T16:23:46.679Z,0.80
2023-05-08T16:26:20.245Z,1.08
2023-05-08T16:31:31.865Z,0.93
2023-05-08T16:34:05.296Z,0.80
2023-05-08T16:36:37.742Z,0.80
2023-05-08T16:39:12.658Z,0.80
2023-05-08T16:41:44.947Z,0.80
2023-05-08T16:44:17.162Z,1.00
2023-05-08T16:46:51.223Z,0.90
2023-05-08T16:49:24.599Z,1.00
2023-05-08T16:51:59.627Z,0.83
2023-05-08T16:54:33.953Z,0.90
2023-05-08T16:57:06.317Z,0.77
2023-05-08T16:59:41.434Z,0.83
2023-05-08T17:02:21.076Z,0.93
2023-05-08T17:04:53.727Z,0.70
2023-05-08T17:07:26.853Z,0.70
2023-05-08T17:09:59.770Z,0.85
2023-05-08T17:15:07.959Z,0.80
2023-05-08T17:17:40.268Z,0.80
2023-05-08T17:20:16.092Z,0.80
2023-05-08T17:22:48.879Z,0.75
2023-05-08T17:25:28.458Z,0.90
2023-05-08T17:28:04.030Z,0.90
2023-05-08T17:30:36.374Z,0.85
2023-05-08T17:33:12.305Z,1.00
2023-05-08T17:35:44.846Z,0.85
2023-05-08T17:38:17.694Z,0.77
2023-05-08T17:40:50.750Z,0.90
2023-05-08T17:43:24.758Z,0.88
2023-05-08T17:45:57.520Z,0.85
2023-05-08T17:48:31.945Z,0.80
2023-05-08T17:51:06.518Z,0.90
2023-05-08T17:53:42.435Z,0.90
2023-05-08T17:56:22.134Z,0.88
2023-05-08T17:58:55.993Z,0.80
2023-05-08T18:01:29.961Z,0.82
2023-05-08T18:04:04.920Z,0.90
2023-05-08T18:06:39.758Z,0.90
2023-05-08T18:09:12.249Z,0.90
2023-05-08T18:11:44.795Z,0.77
2023-05-08T18:14:17.200Z,0.75
2023-05-08T18:16:49.682Z,0.90
2023-05-08T18:19:22.064Z,1.10
2023-05-08T18:21:57.630Z,0.93
2023-05-08T18:24:30.236Z,0.90
2023-05-08T18:27:02.636Z,0.90
2023-05-08T18:29:35.239Z,1.00
2023-05-08T18:32:09.314Z,1.00
2023-05-08T18:34:43.128Z,0.80
2023-05-08T18:37:15.701Z,0.98
2023-05-08T18:39:50.639Z,0.98
2023-05-08T18:42:25.168Z,0.80
2023-05-08T18:44:58.045Z,0.80
2023-05-08T18:47:34.145Z,0.80
2023-05-08T18:50:07.184Z,0.88
2023-05-08T18:52:40.704Z,0.98
2023-05-08T18:55:14.336Z,0.70
2023-05-08T18:57:46.949Z,0.90
2023-05-08T19:00:20.041Z,0.88
2023-05-08T19:05:25.579Z,0.80
2023-05-08T19:07:58.274Z,0.85
2023-05-08T19:10:30.823Z,0.70
2023-05-08T19:13:03.408Z,1.00
2023-05-08T19:15:36.247Z,0.98
2023-05-08T19:18:09.236Z,1.00
2023-05-08T19:20:41.960Z,0.85
2023-05-08T19:23:22.470Z,0.80
2023-05-08T19:25:54.758Z,0.90
2023-05-08T19:28:27.355Z,1.00
2023-05-08T19:30:59.725Z,0.93
2023-05-08T19:33:32.902Z,0.80
2023-05-08T19:36:05.791Z,0.85
2023-05-08T19:38:40.243Z,0.77
2023-05-08T19:41:12.620Z,0.77
2023-05-08T19:43:45.343Z,1.00
2023-05-08T19:46:19.032Z,1.03
2023-05-08T19:48:51.588Z,0.90
2023-05-08T19:51:29.346Z,0.98
2023-05-08T19:54:03.799Z,0.90
2023-05-08T19:56:41.257Z,1.08
2023-05-08T19:59:16.642Z,0.98
2023-05-08T20:01:53.876Z,1.00
2023-05-08T20:04:26.396Z,0.82
2023-05-08T20:06:58.710Z,1.03
2023-05-08T20:09:31.378Z,1.00
2023-05-08T20:12:04.023Z,0.90
2023-05-08T20:14:36.341Z,0.80
2023-05-08T20:17:08.657Z,0.90
2023-05-08T20:19:41.825Z,0.70
2023-05-08T20:22:14.162Z,1.15
2023-05-08T20:24:47.686Z,0.90
2023-05-08T20:27:19.950Z,1.00
2023-05-08T20:32:25.372Z,0.90
2023-05-08T20:34:58.920Z,0.80
2023-05-08T20:37:34.689Z,1.00
2023-05-08T20:40:08.138Z,0.90
2023-05-08T20:45:13.625Z,0.98
2023-05-08T20:47:47.147Z,1.00
2023-05-08T20:50:19.550Z,0.90
2023-05-08T20:52:51.946Z,1.00
2023-05-08T20:55:24.549Z,1.10
2023-05-08T20:57:57.701Z,0.93
2023-05-08T21:00:30.397Z,0.80
2023-05-08T21:03:04.586Z,1.20
2023-05-08T21:05:37.972Z,1.17
2023-05-08T21:08:10.852Z,1.00
2023-05-08T21:10:43.735Z,1.20
2023-05-08T21:13:16.182Z,0.80
2023-05-08T21:15:50.362Z,1.02
2023-05-08T21:18:22.742Z,1.05
2023-05-08T21:20:55.044Z,0.90
2023-05-08T21:23:29.062Z,0.87
2023-05-08T21:26:02.903Z,0.90
2023-05-08T21:28:36.737Z,1.17
2023-05-08T21:31:09.209Z,1.00
2023-05-08T21:33:41.645Z,1.10
2023-05-08T21:36:14.175Z,1.30
2023-05-08T21:38:46.593Z,1.00
2023-05-08T21:41:19.018Z,1.10
2023-05-08T21:43:51.332Z,0.93
2023-05-08T21:46:23.740Z,1.00
2023-05-08T21:48:56.316Z,1.10
2023-05-08T21:51:28.791Z,0.90
2023-05-08T21:54:01.554Z,1.00
2023-05-08T21:56:35.116Z,1.00
2023-05-08T21:59:07.642Z,1.00
2023-05-08T22:01:40.132Z,1.10
2023-05-08T22:04:12.544Z,1.00
2023-05-08T22:06:45.037Z,1.00
2023-05-08T22:09:17.989Z,1.10
2023-05-08T22:11:50.990Z,1.05
2023-05-08T22:14:23.332Z,1.00
2023-05-08T22:16:55.802Z,1.00
2023-05-08T22:19:28.239Z,1.00
2023-05-08T22:22:00.546Z,1.02
2023-05-08T22:24:32.893Z,1.17
2023-05-08T22:27:05.321Z,1.10
2023-05-08T22:29:37.571Z,1.00
2023-05-08T22:32:10.141Z,1.00
2023-05-08T22:34:42.528Z,1.05
2023-05-08T22:37:15.019Z,1.00
2023-05-08T22:39:47.426Z,0.87
2023-05-08T22:42:22.423Z,1.10
2023-05-08T22:44:54.848Z,1.13
2023-05-08T22:47:28.145Z,1.02
2023-05-08T22:50:02.357Z,1.13
2023-05-08T22:52:39.170Z,1.20
2023-05-08T22:55:11.910Z,1.00
2023-05-08T22:57:44.367Z,1.00
2023-05-08T23:00:16.819Z,1.13
2023-05-08T23:02:49.196Z,1.10
2023-05-08T23:05:21.883Z,1.17
2023-05-08T23:07:54.579Z,1.00
2023-05-08T23:10:27.072Z,0.95
2023-05-08T23:12:59.434Z,0.90
2023-05-08T23:15:31.890Z,1.20
2023-05-08T23:18:04.518Z,0.93
2023-05-08T23:20:39.069Z,1.05
2023-05-08T23:23:11.488Z,1.00
2023-05-08T23:25:43.829Z,1.00
2023-05-08T23:28:16.727Z,1.10
2023-05-08T23:30:50.331Z,1.00
2023-05-08T23:33:23.861Z,0.98
2023-05-08T23:36:00.181Z,1.10
2023-05-08T23:38:33.782Z,1.13
2023-05-08T23:41:07.136Z,1.10
2023-05-08T23:43:39.863Z,1.00
2023-05-08T23:46:12.378Z,1.10
2023-05-08T23:48:46.998Z,1.02
2023-05-08T23:53:51.442Z,1.00
2023-05-08T23:56:23.801Z,1.03
2023-05-08T23:58:56.359Z,0.97
